sensor_id;sensor_type;location;lat;lon;timestamp;P1;durP1;ratioP1;P2;durP2;ratioP2
16705;SDS011;8469;60.136;15.180;2024-02-14T00:00:11;3.98;;;2.60;;
16705;SDS011;8469;60.136;15.180;2024-02-14T00:02:37;4.62;;;2.50;;
16705;SDS011;8469;60.136;15.180;2024-02-14T00:05:04;4.10;;;2.70;;
16705;SDS011;8469;60.136;15.180;2024-02-14T00:07:36;5.95;;;3.70;;
16705;SDS011;8469;60.136;15.180;2024-02-14T00:10:00;12.80;;;5.20;;
16705;SDS011;8469;60.136;15.180;2024-02-14T00:12:28;10.13;;;5.60;;
16705;SDS011;8469;60.136;15.180;2024-02-14T00:14:55;11.03;;;4.78;;
16705;SDS011;8469;60.136;15.180;2024-02-14T00:17:24;12.00;;;5.20;;
16705;SDS011;8469;60.136;15.180;2024-02-14T00:19:51;9.68;;;4.97;;
16705;SDS011;8469;60.136;15.180;2024-02-14T00:22:21;10.32;;;5.33;;
16705;SDS011;8469;60.136;15.180;2024-02-14T00:24:47;10.05;;;5.17;;
16705;SDS011;8469;60.136;15.180;2024-02-14T00:27:15;9.70;;;4.80;;
16705;SDS011;8469;60.136;15.180;2024-02-14T00:29:43;11.88;;;5.47;;
16705;SDS011;8469;60.136;15.180;2024-02-14T00:32:12;10.13;;;4.53;;
16705;SDS011;8469;60.136;15.180;2024-02-14T00:34:40;8.88;;;4.47;;
16705;SDS011;8469;60.136;15.180;2024-02-14T00:37:07;8.05;;;3.65;;
16705;SDS011;8469;60.136;15.180;2024-02-14T00:39:34;6.40;;;3.40;;
16705;SDS011;8469;60.136;15.180;2024-02-14T00:42:02;6.97;;;3.40;;
16705;SDS011;8469;60.136;15.180;2024-02-14T00:44:29;5.53;;;3.33;;
16705;SDS011;8469;60.136;15.180;2024-02-14T00:46:57;5.15;;;3.15;;
16705;SDS011;8469;60.136;15.180;2024-02-14T00:49:28;6.87;;;3.25;;
16705;SDS011;8469;60.136;15.180;2024-02-14T00:51:56;7.75;;;3.65;;
16705;SDS011;8469;60.136;15.180;2024-02-14T00:54:26;9.23;;;4.62;;
16705;SDS011;8469;60.136;15.180;2024-02-14T00:56:53;8.63;;;4.78;;
16705;SDS011;8469;60.136;15.180;2024-02-14T00:59:20;9.47;;;4.80;;
16705;SDS011;8469;60.136;15.180;2024-02-14T01:01:48;7.90;;;4.67;;
16705;SDS011;8469;60.136;15.180;2024-02-14T01:04:16;9.38;;;4.75;;
16705;SDS011;8469;60.136;15.180;2024-02-14T01:06:44;7.20;;;4.65;;
16705;SDS011;8469;60.136;15.180;2024-02-14T01:09:11;8.35;;;3.83;;
16705;SDS011;8469;60.136;15.180;2024-02-14T01:11:39;6.70;;;3.90;;
16705;SDS011;8469;60.136;15.180;2024-02-14T01:14:06;6.20;;;3.98;;
16705;SDS011;8469;60.136;15.180;2024-02-14T01:16:41;6.87;;;3.23;;
16705;SDS011;8469;60.136;15.180;2024-02-14T01:19:03;5.87;;;3.20;;
16705;SDS011;8469;60.136;15.180;2024-02-14T01:21:30;7.80;;;3.20;;
16705;SDS011;8469;60.136;15.180;2024-02-14T01:23:58;4.47;;;3.08;;
16705;SDS011;8469;60.136;15.180;2024-02-14T01:26:26;5.10;;;3.15;;
16705;SDS011;8469;60.136;15.180;2024-02-14T01:28:53;5.53;;;3.10;;
16705;SDS011;8469;60.136;15.180;2024-02-14T01:31:20;4.55;;;2.83;;
16705;SDS011;8469;60.136;15.180;2024-02-14T01:33:48;5.30;;;3.05;;
16705;SDS011;8469;60.136;15.180;2024-02-14T01:36:15;4.80;;;2.80;;
16705;SDS011;8469;60.136;15.180;2024-02-14T01:38:43;7.97;;;3.33;;
16705;SDS011;8469;60.136;15.180;2024-02-14T01:41:11;5.33;;;2.47;;
16705;SDS011;8469;60.136;15.180;2024-02-14T01:43:39;7.37;;;3.15;;
16705;SDS011;8469;60.136;15.180;2024-02-14T01:46:08;4.72;;;2.87;;
16705;SDS011;8469;60.136;15.180;2024-02-14T01:48:36;5.58;;;3.30;;
16705;SDS011;8469;60.136;15.180;2024-02-14T01:51:03;5.67;;;2.90;;
16705;SDS011;8469;60.136;15.180;2024-02-14T01:53:32;4.58;;;2.90;;
16705;SDS011;8469;60.136;15.180;2024-02-14T01:55:59;6.67;;;3.15;;
16705;SDS011;8469;60.136;15.180;2024-02-14T01:58:29;5.70;;;3.27;;
16705;SDS011;8469;60.136;15.180;2024-02-14T02:00:57;6.53;;;3.70;;
16705;SDS011;8469;60.136;15.180;2024-02-14T02:03:25;5.00;;;3.22;;
16705;SDS011;8469;60.136;15.180;2024-02-14T02:05:52;4.50;;;3.22;;
16705;SDS011;8469;60.136;15.180;2024-02-14T02:08:24;5.23;;;3.10;;
16705;SDS011;8469;60.136;15.180;2024-02-14T02:10:51;5.28;;;3.42;;
16705;SDS011;8469;60.136;15.180;2024-02-14T02:13:21;6.00;;;3.70;;
16705;SDS011;8469;60.136;15.180;2024-02-14T02:15:49;5.65;;;3.50;;
16705;SDS011;8469;60.136;15.180;2024-02-14T02:18:18;8.53;;;3.80;;
16705;SDS011;8469;60.136;15.180;2024-02-14T02:20:46;8.73;;;3.80;;
16705;SDS011;8469;60.136;15.180;2024-02-14T02:23:14;8.15;;;4.22;;
16705;SDS011;8469;60.136;15.180;2024-02-14T02:25:41;8.70;;;4.30;;
16705;SDS011;8469;60.136;15.180;2024-02-14T02:28:09;8.03;;;4.30;;
16705;SDS011;8469;60.136;15.180;2024-02-14T02:30:36;8.35;;;4.17;;
16705;SDS011;8469;60.136;15.180;2024-02-14T02:33:04;7.87;;;4.37;;
16705;SDS011;8469;60.136;15.180;2024-02-14T02:35:32;9.78;;;4.70;;
16705;SDS011;8469;60.136;15.180;2024-02-14T02:38:00;10.38;;;4.25;;
16705;SDS011;8469;60.136;15.180;2024-02-14T02:40:27;6.97;;;3.77;;
16705;SDS011;8469;60.136;15.180;2024-02-14T02:42:55;8.23;;;3.80;;
16705;SDS011;8469;60.136;15.180;2024-02-14T02:45:22;9.43;;;3.83;;
16705;SDS011;8469;60.136;15.180;2024-02-14T02:47:49;7.92;;;3.58;;
16705;SDS011;8469;60.136;15.180;2024-02-14T02:50:19;6.53;;;3.30;;
16705;SDS011;8469;60.136;15.180;2024-02-14T02:52:48;8.90;;;3.80;;
16705;SDS011;8469;60.136;15.180;2024-02-14T02:55:15;5.53;;;3.60;;
16705;SDS011;8469;60.136;15.180;2024-02-14T02:57:44;10.35;;;4.50;;
16705;SDS011;8469;60.136;15.180;2024-02-14T03:00:11;8.58;;;4.33;;
16705;SDS011;8469;60.136;15.180;2024-02-14T03:02:39;6.60;;;3.83;;
16705;SDS011;8469;60.136;15.180;2024-02-14T03:05:08;7.20;;;4.00;;
16705;SDS011;8469;60.136;15.180;2024-02-14T03:07:36;6.87;;;4.10;;
16705;SDS011;8469;60.136;15.180;2024-02-14T03:10:05;12.55;;;5.22;;
16705;SDS011;8469;60.136;15.180;2024-02-14T03:12:33;6.30;;;3.93;;
16705;SDS011;8469;60.136;15.180;2024-02-14T03:15:03;8.35;;;4.05;;
16705;SDS011;8469;60.136;15.180;2024-02-14T03:17:31;7.33;;;3.65;;
16705;SDS011;8469;60.136;15.180;2024-02-14T03:19:58;6.72;;;3.55;;
16705;SDS011;8469;60.136;15.180;2024-02-14T03:22:30;8.13;;;4.25;;
16705;SDS011;8469;60.136;15.180;2024-02-14T03:24:54;7.75;;;4.20;;
16705;SDS011;8469;60.136;15.180;2024-02-14T03:27:21;7.20;;;4.00;;
16705;SDS011;8469;60.136;15.180;2024-02-14T03:29:50;7.42;;;3.58;;
16705;SDS011;8469;60.136;15.180;2024-02-14T03:32:18;5.78;;;3.55;;
16705;SDS011;8469;60.136;15.180;2024-02-14T03:34:45;8.23;;;3.85;;
16705;SDS011;8469;60.136;15.180;2024-02-14T03:37:13;5.95;;;3.58;;
16705;SDS011;8469;60.136;15.180;2024-02-14T03:39:41;5.87;;;3.62;;
16705;SDS011;8469;60.136;15.180;2024-02-14T03:42:07;6.17;;;3.43;;
16705;SDS011;8469;60.136;15.180;2024-02-14T03:44:36;5.87;;;3.53;;
16705;SDS011;8469;60.136;15.180;2024-02-14T03:47:05;6.28;;;3.77;;
16705;SDS011;8469;60.136;15.180;2024-02-14T03:49:32;4.90;;;3.50;;
16705;SDS011;8469;60.136;15.180;2024-02-14T03:51:59;7.03;;;3.77;;
16705;SDS011;8469;60.136;15.180;2024-02-14T03:54:27;6.83;;;3.65;;
16705;SDS011;8469;60.136;15.180;2024-02-14T03:56:55;9.10;;;3.47;;
16705;SDS011;8469;60.136;15.180;2024-02-14T03:59:22;6.45;;;3.98;;
16705;SDS011;8469;60.136;15.180;2024-02-14T04:01:51;6.03;;;3.55;;
16705;SDS011;8469;60.136;15.180;2024-02-14T04:04:19;4.90;;;3.33;;
16705;SDS011;8469;60.136;15.180;2024-02-14T04:06:47;5.50;;;3.47;;
16705;SDS011;8469;60.136;15.180;2024-02-14T04:09:14;4.72;;;3.02;;
16705;SDS011;8469;60.136;15.180;2024-02-14T04:11:41;5.97;;;2.90;;
16705;SDS011;8469;60.136;15.180;2024-02-14T04:14:09;4.25;;;3.08;;
16705;SDS011;8469;60.136;15.180;2024-02-14T04:16:37;4.85;;;2.72;;
16705;SDS011;8469;60.136;15.180;2024-02-14T04:19:04;6.40;;;3.17;;
16705;SDS011;8469;60.136;15.180;2024-02-14T04:21:32;5.42;;;2.52;;
16705;SDS011;8469;60.136;15.180;2024-02-14T04:23:58;2.95;;;2.52;;
16705;SDS011;8469;60.136;15.180;2024-02-14T04:26:26;4.35;;;2.62;;
16705;SDS011;8469;60.136;15.180;2024-02-14T04:28:54;4.17;;;2.70;;
16705;SDS011;8469;60.136;15.180;2024-02-14T04:31:21;3.75;;;2.55;;
16705;SDS011;8469;60.136;15.180;2024-02-14T04:33:48;4.22;;;2.87;;
16705;SDS011;8469;60.136;15.180;2024-02-14T04:36:18;3.92;;;2.60;;
16705;SDS011;8469;60.136;15.180;2024-02-14T04:38:52;5.03;;;2.67;;
16705;SDS011;8469;60.136;15.180;2024-02-14T04:41:19;5.62;;;2.85;;
16705;SDS011;8469;60.136;15.180;2024-02-14T04:43:47;3.90;;;2.30;;
16705;SDS011;8469;60.136;15.180;2024-02-14T04:46:14;4.03;;;2.83;;
16705;SDS011;8469;60.136;15.180;2024-02-14T04:48:42;5.45;;;3.22;;
16705;SDS011;8469;60.136;15.180;2024-02-14T04:51:09;3.40;;;2.50;;
16705;SDS011;8469;60.136;15.180;2024-02-14T04:53:36;6.12;;;2.70;;
16705;SDS011;8469;60.136;15.180;2024-02-14T04:56:04;3.42;;;2.60;;
16705;SDS011;8469;60.136;15.180;2024-02-14T04:58:31;3.40;;;2.50;;
16705;SDS011;8469;60.136;15.180;2024-02-14T05:00:58;3.85;;;2.17;;
16705;SDS011;8469;60.136;15.180;2024-02-14T05:03:29;3.83;;;2.55;;
16705;SDS011;8469;60.136;15.180;2024-02-14T05:05:56;4.73;;;2.60;;
16705;SDS011;8469;60.136;15.180;2024-02-14T05:08:25;3.67;;;2.22;;
16705;SDS011;8469;60.136;15.180;2024-02-14T05:10:52;3.40;;;2.52;;
16705;SDS011;8469;60.136;15.180;2024-02-14T05:13:19;4.03;;;2.40;;
16705;SDS011;8469;60.136;15.180;2024-02-14T05:15:47;3.85;;;2.40;;
16705;SDS011;8469;60.136;15.180;2024-02-14T05:18:15;3.22;;;2.37;;
16705;SDS011;8469;60.136;15.180;2024-02-14T05:20:42;3.55;;;2.50;;
16705;SDS011;8469;60.136;15.180;2024-02-14T05:23:10;4.85;;;2.70;;
16705;SDS011;8469;60.136;15.180;2024-02-14T05:25:38;2.95;;;2.22;;
16705;SDS011;8469;60.136;15.180;2024-02-14T05:28:05;4.35;;;2.50;;
16705;SDS011;8469;60.136;15.180;2024-02-14T05:30:33;4.23;;;2.70;;
16705;SDS011;8469;60.136;15.180;2024-02-14T05:33:02;3.65;;;2.70;;
16705;SDS011;8469;60.136;15.180;2024-02-14T05:35:29;7.90;;;3.50;;
16705;SDS011;8469;60.136;15.180;2024-02-14T05:37:56;6.92;;;3.10;;
16705;SDS011;8469;60.136;15.180;2024-02-14T05:40:24;4.00;;;2.65;;
16705;SDS011;8469;60.136;15.180;2024-02-14T05:42:52;5.05;;;2.70;;
16705;SDS011;8469;60.136;15.180;2024-02-14T05:45:19;4.10;;;2.70;;
16705;SDS011;8469;60.136;15.180;2024-02-14T05:47:46;5.10;;;2.90;;
16705;SDS011;8469;60.136;15.180;2024-02-14T05:50:13;5.10;;;2.62;;
16705;SDS011;8469;60.136;15.180;2024-02-14T05:52:41;3.52;;;2.75;;
16705;SDS011;8469;60.136;15.180;2024-02-14T05:55:08;5.65;;;2.90;;
16705;SDS011;8469;60.136;15.180;2024-02-14T05:57:35;4.58;;;2.80;;
16705;SDS011;8469;60.136;15.180;2024-02-14T06:00:03;5.87;;;3.15;;
16705;SDS011;8469;60.136;15.180;2024-02-14T06:02:31;4.33;;;2.97;;
16705;SDS011;8469;60.136;15.180;2024-02-14T06:04:59;8.70;;;3.70;;
16705;SDS011;8469;60.136;15.180;2024-02-14T06:07:29;10.40;;;4.60;;
16705;SDS011;8469;60.136;15.180;2024-02-14T06:09:56;12.53;;;5.67;;
16705;SDS011;8469;60.136;15.180;2024-02-14T06:12:23;15.55;;;6.08;;
16705;SDS011;8469;60.136;15.180;2024-02-14T06:14:51;14.13;;;6.35;;
16705;SDS011;8469;60.136;15.180;2024-02-14T06:17:18;10.48;;;5.78;;
16705;SDS011;8469;60.136;15.180;2024-02-14T06:19:46;8.45;;;5.35;;
16705;SDS011;8469;60.136;15.180;2024-02-14T06:22:13;8.28;;;4.60;;
16705;SDS011;8469;60.136;15.180;2024-02-14T06:24:40;10.58;;;4.70;;
16705;SDS011;8469;60.136;15.180;2024-02-14T06:27:07;7.22;;;4.20;;
16705;SDS011;8469;60.136;15.180;2024-02-14T06:29:35;7.83;;;3.83;;
16705;SDS011;8469;60.136;15.180;2024-02-14T06:32:08;3.45;;;2.80;;
16705;SDS011;8469;60.136;15.180;2024-02-14T06:34:31;7.55;;;3.25;;
16705;SDS011;8469;60.136;15.180;2024-02-14T06:36:58;5.30;;;2.77;;
16705;SDS011;8469;60.136;15.180;2024-02-14T06:39:27;4.33;;;2.80;;
16705;SDS011;8469;60.136;15.180;2024-02-14T06:41:56;7.00;;;2.62;;
16705;SDS011;8469;60.136;15.180;2024-02-14T06:44:23;5.10;;;3.10;;
16705;SDS011;8469;60.136;15.180;2024-02-14T06:46:52;3.97;;;2.77;;
16705;SDS011;8469;60.136;15.180;2024-02-14T06:49:19;5.75;;;3.02;;
16705;SDS011;8469;60.136;15.180;2024-02-14T06:51:46;6.67;;;3.27;;
16705;SDS011;8469;60.136;15.180;2024-02-14T06:54:14;3.33;;;2.47;;
16705;SDS011;8469;60.136;15.180;2024-02-14T06:56:42;3.42;;;2.60;;
16705;SDS011;8469;60.136;15.180;2024-02-14T06:59:10;4.03;;;2.50;;
16705;SDS011;8469;60.136;15.180;2024-02-14T07:01:37;4.53;;;2.67;;
16705;SDS011;8469;60.136;15.180;2024-02-14T07:04:04;5.80;;;2.30;;
16705;SDS011;8469;60.136;15.180;2024-02-14T07:06:32;4.92;;;2.62;;
16705;SDS011;8469;60.136;15.180;2024-02-14T07:08:59;4.50;;;2.62;;
16705;SDS011;8469;60.136;15.180;2024-02-14T07:11:26;5.37;;;3.20;;
16705;SDS011;8469;60.136;15.180;2024-02-14T07:13:54;4.37;;;3.20;;
16705;SDS011;8469;60.136;15.180;2024-02-14T07:16:21;5.87;;;3.00;;
16705;SDS011;8469;60.136;15.180;2024-02-14T07:18:49;4.97;;;2.77;;
16705;SDS011;8469;60.136;15.180;2024-02-14T07:21:17;5.05;;;3.05;;
16705;SDS011;8469;60.136;15.180;2024-02-14T07:23:44;4.53;;;3.00;;
16705;SDS011;8469;60.136;15.180;2024-02-14T07:26:12;5.47;;;3.07;;
16705;SDS011;8469;60.136;15.180;2024-02-14T07:28:39;3.02;;;2.65;;
16705;SDS011;8469;60.136;15.180;2024-02-14T07:31:07;7.35;;;3.05;;
16705;SDS011;8469;60.136;15.180;2024-02-14T07:33:34;2.98;;;2.45;;
16705;SDS011;8469;60.136;15.180;2024-02-14T07:36:02;5.10;;;2.80;;
16705;SDS011;8469;60.136;15.180;2024-02-14T07:38:30;3.27;;;2.70;;
16705;SDS011;8469;60.136;15.180;2024-02-14T07:40:57;4.67;;;2.60;;
16705;SDS011;8469;60.136;15.180;2024-02-14T07:43:24;3.90;;;2.77;;
16705;SDS011;8469;60.136;15.180;2024-02-14T07:45:52;3.37;;;2.52;;
16705;SDS011;8469;60.136;15.180;2024-02-14T07:48:19;4.47;;;2.80;;
16705;SDS011;8469;60.136;15.180;2024-02-14T07:50:48;4.00;;;2.80;;
16705;SDS011;8469;60.136;15.180;2024-02-14T07:53:15;4.67;;;2.80;;
16705;SDS011;8469;60.136;15.180;2024-02-14T07:55:43;3.95;;;2.72;;
16705;SDS011;8469;60.136;15.180;2024-02-14T07:58:10;3.25;;;2.60;;
16705;SDS011;8469;60.136;15.180;2024-02-14T08:00:38;5.20;;;2.72;;
16705;SDS011;8469;60.136;15.180;2024-02-14T08:03:06;4.78;;;2.80;;
16705;SDS011;8469;60.136;15.180;2024-02-14T08:05:34;4.78;;;2.65;;
16705;SDS011;8469;60.136;15.180;2024-02-14T08:08:01;4.17;;;2.63;;
16705;SDS011;8469;60.136;15.180;2024-02-14T08:10:29;4.33;;;2.70;;
16705;SDS011;8469;60.136;15.180;2024-02-14T08:12:56;4.67;;;2.75;;
16705;SDS011;8469;60.136;15.180;2024-02-14T08:15:23;6.25;;;2.83;;
16705;SDS011;8469;60.136;15.180;2024-02-14T08:17:51;5.28;;;3.27;;
16705;SDS011;8469;60.136;15.180;2024-02-14T08:20:20;7.50;;;2.90;;
16705;SDS011;8469;60.136;15.180;2024-02-14T08:22:47;6.58;;;2.90;;
16705;SDS011;8469;60.136;15.180;2024-02-14T08:25:15;5.22;;;3.00;;
16705;SDS011;8469;60.136;15.180;2024-02-14T08:27:42;8.00;;;2.95;;
16705;SDS011;8469;60.136;15.180;2024-02-14T08:30:10;4.50;;;3.20;;
16705;SDS011;8469;60.136;15.180;2024-02-14T08:32:38;6.60;;;3.10;;
16705;SDS011;8469;60.136;15.180;2024-02-14T08:35:05;6.05;;;2.95;;
16705;SDS011;8469;60.136;15.180;2024-02-14T08:37:33;5.97;;;3.12;;
16705;SDS011;8469;60.136;15.180;2024-02-14T08:40:02;4.45;;;2.50;;
16705;SDS011;8469;60.136;15.180;2024-02-14T08:42:32;6.67;;;2.90;;
16705;SDS011;8469;60.136;15.180;2024-02-14T08:45:01;4.53;;;3.05;;
16705;SDS011;8469;60.136;15.180;2024-02-14T08:47:29;7.62;;;3.52;;
16705;SDS011;8469;60.136;15.180;2024-02-14T08:49:56;5.13;;;3.17;;
16705;SDS011;8469;60.136;15.180;2024-02-14T08:52:24;5.58;;;2.90;;
16705;SDS011;8469;60.136;15.180;2024-02-14T08:54:52;5.97;;;3.17;;
16705;SDS011;8469;60.136;15.180;2024-02-14T08:57:19;5.17;;;3.22;;
16705;SDS011;8469;60.136;15.180;2024-02-14T08:59:47;5.53;;;2.83;;
16705;SDS011;8469;60.136;15.180;2024-02-14T09:02:14;5.00;;;3.05;;
16705;SDS011;8469;60.136;15.180;2024-02-14T09:04:43;7.30;;;3.53;;
16705;SDS011;8469;60.136;15.180;2024-02-14T09:07:10;4.15;;;2.72;;
16705;SDS011;8469;60.136;15.180;2024-02-14T09:09:39;6.15;;;3.20;;
16705;SDS011;8469;60.136;15.180;2024-02-14T09:12:07;5.30;;;2.80;;
16705;SDS011;8469;60.136;15.180;2024-02-14T09:14:33;4.10;;;2.92;;
16705;SDS011;8469;60.136;15.180;2024-02-14T09:17:02;6.00;;;2.70;;
16705;SDS011;8469;60.136;15.180;2024-02-14T09:19:29;5.15;;;3.15;;
16705;SDS011;8469;60.136;15.180;2024-02-14T09:21:56;4.92;;;2.83;;
16705;SDS011;8469;60.136;15.180;2024-02-14T09:24:23;4.80;;;3.00;;
16705;SDS011;8469;60.136;15.180;2024-02-14T09:26:53;8.30;;;3.30;;
16705;SDS011;8469;60.136;15.180;2024-02-14T09:29:22;6.97;;;3.00;;
16705;SDS011;8469;60.136;15.180;2024-02-14T09:31:50;4.90;;;2.80;;
16705;SDS011;8469;60.136;15.180;2024-02-14T09:34:17;5.20;;;2.90;;
16705;SDS011;8469;60.136;15.180;2024-02-14T09:36:49;3.70;;;2.58;;
16705;SDS011;8469;60.136;15.180;2024-02-14T09:39:16;4.67;;;2.80;;
16705;SDS011;8469;60.136;15.180;2024-02-14T09:41:44;5.70;;;2.65;;
16705;SDS011;8469;60.136;15.180;2024-02-14T09:44:13;4.42;;;2.50;;
16705;SDS011;8469;60.136;15.180;2024-02-14T09:46:41;5.47;;;2.50;;
16705;SDS011;8469;60.136;15.180;2024-02-14T09:49:09;5.78;;;2.90;;
16705;SDS011;8469;60.136;15.180;2024-02-14T09:51:37;4.78;;;3.12;;
16705;SDS011;8469;60.136;15.180;2024-02-14T09:54:05;5.27;;;2.97;;
16705;SDS011;8469;60.136;15.180;2024-02-14T09:56:32;6.50;;;3.30;;
16705;SDS011;8469;60.136;15.180;2024-02-14T09:59:00;7.28;;;3.25;;
16705;SDS011;8469;60.136;15.180;2024-02-14T10:01:28;6.28;;;3.10;;
16705;SDS011;8469;60.136;15.180;2024-02-14T10:03:56;4.45;;;2.75;;
16705;SDS011;8469;60.136;15.180;2024-02-14T10:06:24;4.90;;;2.98;;
16705;SDS011;8469;60.136;15.180;2024-02-14T10:08:51;8.35;;;3.30;;
16705;SDS011;8469;60.136;15.180;2024-02-14T10:11:19;4.55;;;2.70;;
16705;SDS011;8469;60.136;15.180;2024-02-14T10:13:50;4.87;;;3.00;;
16705;SDS011;8469;60.136;15.180;2024-02-14T10:16:19;6.65;;;3.40;;
16705;SDS011;8469;60.136;15.180;2024-02-14T10:18:47;6.28;;;3.10;;
16705;SDS011;8469;60.136;15.180;2024-02-14T10:21:16;6.28;;;3.20;;
16705;SDS011;8469;60.136;15.180;2024-02-14T10:23:45;4.92;;;3.10;;
16705;SDS011;8469;60.136;15.180;2024-02-14T10:26:17;6.40;;;3.08;;
16705;SDS011;8469;60.136;15.180;2024-02-14T10:28:44;5.83;;;3.22;;
16705;SDS011;8469;60.136;15.180;2024-02-14T10:31:11;4.80;;;3.17;;
16705;SDS011;8469;60.136;15.180;2024-02-14T10:33:39;4.65;;;3.10;;
16705;SDS011;8469;60.136;15.180;2024-02-14T10:36:12;7.22;;;3.12;;
16705;SDS011;8469;60.136;15.180;2024-02-14T10:38:35;6.20;;;2.87;;
16705;SDS011;8469;60.136;15.180;2024-02-14T10:41:03;4.87;;;2.75;;
16705;SDS011;8469;60.136;15.180;2024-02-14T10:43:30;4.37;;;2.92;;
16705;SDS011;8469;60.136;15.180;2024-02-14T10:46:04;4.20;;;2.80;;
16705;SDS011;8469;60.136;15.180;2024-02-14T10:48:29;4.72;;;2.77;;
16705;SDS011;8469;60.136;15.180;2024-02-14T10:51:04;4.22;;;2.60;;
16705;SDS011;8469;60.136;15.180;2024-02-14T10:53:32;5.08;;;2.90;;
16705;SDS011;8469;60.136;15.180;2024-02-14T10:56:00;5.92;;;3.22;;
16705;SDS011;8469;60.136;15.180;2024-02-14T10:58:29;4.75;;;3.02;;
16705;SDS011;8469;60.136;15.180;2024-02-14T11:00:58;4.00;;;2.67;;
16705;SDS011;8469;60.136;15.180;2024-02-14T11:03:26;3.95;;;2.52;;
16705;SDS011;8469;60.136;15.180;2024-02-14T11:05:56;3.75;;;2.60;;
16705;SDS011;8469;60.136;15.180;2024-02-14T11:08:28;3.00;;;2.50;;
16705;SDS011;8469;60.136;15.180;2024-02-14T11:10:55;3.98;;;2.75;;
16705;SDS011;8469;60.136;15.180;2024-02-14T11:13:26;3.85;;;2.42;;
16705;SDS011;8469;60.136;15.180;2024-02-14T11:15:55;4.92;;;2.70;;
16705;SDS011;8469;60.136;15.180;2024-02-14T11:18:28;3.92;;;2.33;;
16705;SDS011;8469;60.136;15.180;2024-02-14T11:20:56;4.22;;;2.10;;
16705;SDS011;8469;60.136;15.180;2024-02-14T11:23:25;2.47;;;2.00;;
16705;SDS011;8469;60.136;15.180;2024-02-14T11:26:00;3.27;;;2.52;;
16705;SDS011;8469;60.136;15.180;2024-02-14T11:28:28;3.22;;;2.20;;
16705;SDS011;8469;60.136;15.180;2024-02-14T11:31:02;2.55;;;2.27;;
16705;SDS011;8469;60.136;15.180;2024-02-14T11:33:30;2.60;;;2.20;;
16705;SDS011;8469;60.136;15.180;2024-02-14T11:35:57;4.40;;;2.35;;
16705;SDS011;8469;60.136;15.180;2024-02-14T11:38:25;2.22;;;2.02;;
16705;SDS011;8469;60.136;15.180;2024-02-14T11:40:55;3.55;;;2.37;;
16705;SDS011;8469;60.136;15.180;2024-02-14T11:43:23;2.60;;;2.10;;
16705;SDS011;8469;60.136;15.180;2024-02-14T11:45:51;2.92;;;2.10;;
16705;SDS011;8469;60.136;15.180;2024-02-14T11:48:21;3.02;;;2.15;;
16705;SDS011;8469;60.136;15.180;2024-02-14T11:50:51;2.47;;;1.93;;
16705;SDS011;8469;60.136;15.180;2024-02-14T11:53:19;2.10;;;1.90;;
16705;SDS011;8469;60.136;15.180;2024-02-14T11:55:47;2.27;;;1.82;;
16705;SDS011;8469;60.136;15.180;2024-02-14T11:58:16;2.10;;;1.90;;
16705;SDS011;8469;60.136;15.180;2024-02-14T12:00:44;2.98;;;2.30;;
16705;SDS011;8469;60.136;15.180;2024-02-14T12:03:16;2.12;;;1.85;;
16705;SDS011;8469;60.136;15.180;2024-02-14T12:05:45;3.25;;;1.98;;
16705;SDS011;8469;60.136;15.180;2024-02-14T12:08:13;3.47;;;2.05;;
16705;SDS011;8469;60.136;15.180;2024-02-14T12:10:44;3.42;;;1.80;;
16705;SDS011;8469;60.136;15.180;2024-02-14T12:13:16;3.05;;;1.95;;
16705;SDS011;8469;60.136;15.180;2024-02-14T12:15:44;2.00;;;1.73;;
16705;SDS011;8469;60.136;15.180;2024-02-14T12:18:12;3.02;;;2.00;;
16705;SDS011;8469;60.136;15.180;2024-02-14T12:20:41;5.50;;;2.40;;
16705;SDS011;8469;60.136;15.180;2024-02-14T12:23:13;2.60;;;2.27;;
16705;SDS011;8469;60.136;15.180;2024-02-14T12:25:37;4.45;;;2.08;;
16705;SDS011;8469;60.136;15.180;2024-02-14T12:28:05;4.12;;;2.30;;
16705;SDS011;8469;60.136;15.180;2024-02-14T12:30:42;3.20;;;2.15;;
16705;SDS011;8469;60.136;15.180;2024-02-14T12:33:02;3.05;;;2.40;;
16705;SDS011;8469;60.136;15.180;2024-02-14T12:35:33;3.90;;;2.45;;
16705;SDS011;8469;60.136;15.180;2024-02-14T12:38:02;5.90;;;2.42;;
16705;SDS011;8469;60.136;15.180;2024-02-14T12:40:31;3.87;;;2.12;;
16705;SDS011;8469;60.136;15.180;2024-02-14T12:42:59;5.25;;;2.67;;
16705;SDS011;8469;60.136;15.180;2024-02-14T12:45:26;4.65;;;2.60;;
16705;SDS011;8469;60.136;15.180;2024-02-14T12:47:53;2.60;;;2.20;;
16705;SDS011;8469;60.136;15.180;2024-02-14T12:50:20;2.30;;;2.10;;
16705;SDS011;8469;60.136;15.180;2024-02-14T12:52:48;2.10;;;1.90;;
16705;SDS011;8469;60.136;15.180;2024-02-14T12:55:16;2.00;;;1.70;;
16705;SDS011;8469;60.136;15.180;2024-02-14T12:57:45;2.02;;;1.72;;
16705;SDS011;8469;60.136;15.180;2024-02-14T13:00:14;3.58;;;1.90;;
16705;SDS011;8469;60.136;15.180;2024-02-14T13:02:41;2.20;;;1.87;;
16705;SDS011;8469;60.136;15.180;2024-02-14T13:05:09;4.10;;;1.90;;
16705;SDS011;8469;60.136;15.180;2024-02-14T13:07:37;2.65;;;1.87;;
16705;SDS011;8469;60.136;15.180;2024-02-14T13:10:04;1.92;;;1.72;;
16705;SDS011;8469;60.136;15.180;2024-02-14T13:12:35;2.13;;;1.70;;
16705;SDS011;8469;60.136;15.180;2024-02-14T13:15:02;2.92;;;2.00;;
16705;SDS011;8469;60.136;15.180;2024-02-14T13:17:30;2.42;;;1.90;;
16705;SDS011;8469;60.136;15.180;2024-02-14T13:19:57;3.33;;;1.95;;
16705;SDS011;8469;60.136;15.180;2024-02-14T13:22:30;2.80;;;1.90;;
16705;SDS011;8469;60.136;15.180;2024-02-14T13:24:54;2.33;;;1.90;;
16705;SDS011;8469;60.136;15.180;2024-02-14T13:27:22;3.22;;;1.90;;
16705;SDS011;8469;60.136;15.180;2024-02-14T13:29:49;3.72;;;2.20;;
16705;SDS011;8469;60.136;15.180;2024-02-14T13:32:17;4.25;;;2.50;;
16705;SDS011;8469;60.136;15.180;2024-02-14T13:34:44;3.27;;;2.30;;
16705;SDS011;8469;60.136;15.180;2024-02-14T13:37:12;3.83;;;2.70;;
16705;SDS011;8469;60.136;15.180;2024-02-14T13:39:39;3.77;;;2.50;;
16705;SDS011;8469;60.136;15.180;2024-02-14T13:42:06;2.87;;;2.17;;
16705;SDS011;8469;60.136;15.180;2024-02-14T13:44:34;3.10;;;2.27;;
16705;SDS011;8469;60.136;15.180;2024-02-14T13:47:01;2.22;;;2.02;;
16705;SDS011;8469;60.136;15.180;2024-02-14T13:49:28;2.80;;;2.10;;
16705;SDS011;8469;60.136;15.180;2024-02-14T13:51:57;5.07;;;3.17;;
16705;SDS011;8469;60.136;15.180;2024-02-14T13:54:24;2.93;;;2.30;;
16705;SDS011;8469;60.136;15.180;2024-02-14T13:56:52;5.62;;;3.08;;
16705;SDS011;8469;60.136;15.180;2024-02-14T13:59:19;3.27;;;2.72;;
16705;SDS011;8469;60.136;15.180;2024-02-14T14:01:47;4.50;;;2.87;;
16705;SDS011;8469;60.136;15.180;2024-02-14T14:04:15;3.30;;;2.27;;
16705;SDS011;8469;60.136;15.180;2024-02-14T14:06:42;3.80;;;2.30;;
16705;SDS011;8469;60.136;15.180;2024-02-14T14:09:09;4.03;;;2.60;;
16705;SDS011;8469;60.136;15.180;2024-02-14T14:11:37;3.12;;;2.40;;
16705;SDS011;8469;60.136;15.180;2024-02-14T14:14:06;5.08;;;2.98;;
16705;SDS011;8469;60.136;15.180;2024-02-14T14:16:34;3.80;;;2.42;;
16705;SDS011;8469;60.136;15.180;2024-02-14T14:19:02;3.12;;;2.55;;
16705;SDS011;8469;60.136;15.180;2024-02-14T14:21:29;3.90;;;2.52;;
16705;SDS011;8469;60.136;15.180;2024-02-14T14:23:57;3.02;;;2.27;;
16705;SDS011;8469;60.136;15.180;2024-02-14T14:26:24;5.23;;;2.57;;
16705;SDS011;8469;60.136;15.180;2024-02-14T14:28:51;4.80;;;2.37;;
16705;SDS011;8469;60.136;15.180;2024-02-14T14:31:20;3.37;;;2.20;;
16705;SDS011;8469;60.136;15.180;2024-02-14T14:33:48;3.47;;;2.45;;
16705;SDS011;8469;60.136;15.180;2024-02-14T14:36:20;3.75;;;2.33;;
16705;SDS011;8469;60.136;15.180;2024-02-14T14:38:47;2.83;;;2.10;;
16705;SDS011;8469;60.136;15.180;2024-02-14T14:41:14;4.00;;;2.40;;
16705;SDS011;8469;60.136;15.180;2024-02-14T14:43:42;5.97;;;2.30;;
16705;SDS011;8469;60.136;15.180;2024-02-14T14:46:08;3.23;;;2.30;;
16705;SDS011;8469;60.136;15.180;2024-02-14T14:48:37;3.37;;;2.42;;
16705;SDS011;8469;60.136;15.180;2024-02-14T14:51:05;2.60;;;2.40;;